createdAt,value
2017-10-05T00:02:24.271Z,86.63
2017-10-05T00:05:04.979Z,86.53
2017-10-05T00:07:47.097Z,86.62
2017-10-05T00:10:27.214Z,86.73
2017-10-05T00:13:12.919Z,86.70
2017-10-05T00:15:42.694Z,86.71
2017-10-05T00:18:11.369Z,86.63
2017-10-05T00:20:40.034Z,87.02
2017-10-05T00:23:08.662Z,87.00
2017-10-05T00:25:37.122Z,87.11
2017-10-05T00:28:05.625Z,87.09
2017-10-05T00:30:34.093Z,87.23
2017-10-05T00:33:02.747Z,87.17
2017-10-05T00:35:31.386Z,87.18
2017-10-05T00:38:00.122Z,87.37
2017-10-05T00:40:28.733Z,87.20
2017-10-05T00:42:57.430Z,87.14
2017-10-05T00:45:26.046Z,87.51
2017-10-05T00:47:54.681Z,87.39
2017-10-05T00:50:23.363Z,87.50
2017-10-05T00:52:52.006Z,87.50
2017-10-05T00:55:20.339Z,87.40
2017-10-05T00:57:48.682Z,87.54
2017-10-05T01:00:17.047Z,87.83
2017-10-05T01:02:45.719Z,87.80
2017-10-05T01:05:14.375Z,87.91
2017-10-05T01:07:43.071Z,87.80
2017-10-05T01:10:11.682Z,87.88
2017-10-05T01:12:40.338Z,88.03
2017-10-05T01:15:08.971Z,88.08
2017-10-05T01:17:37.593Z,88.16
2017-10-05T01:20:06.282Z,88.31
2017-10-05T01:22:34.632Z,88.67
2017-10-05T01:25:03.279Z,88.95
2017-10-05T01:27:31.951Z,89.02
2017-10-05T01:30:00.614Z,89.13
2017-10-05T01:32:29.226Z,89.13
2017-10-05T01:34:57.909Z,89.05
2017-10-05T01:37:26.529Z,88.95
2017-10-05T01:39:55.197Z,88.92
2017-10-05T01:42:23.828Z,88.87
2017-10-05T01:44:52.459Z,89.01
2017-10-05T01:47:21.125Z,88.73
2017-10-05T01:49:49.755Z,88.90
2017-10-05T01:52:18.153Z,89.07
2017-10-05T01:54:47.415Z,88.99
2017-10-05T01:57:16.047Z,89.14
2017-10-05T01:59:44.698Z,89.20
2017-10-05T02:02:13.325Z,89.18
2017-10-05T02:04:42.079Z,89.18
2017-10-05T02:07:10.746Z,89.25
2017-10-05T02:09:39.445Z,89.37
2017-10-05T02:12:08.122Z,89.43
2017-10-05T02:14:36.771Z,89.35
2017-10-05T02:17:05.423Z,89.35
2017-10-05T02:19:34.075Z,89.29
2017-10-05T02:22:02.748Z,89.71
2017-10-05T02:24:31.402Z,89.46
2017-10-05T02:27:00.034Z,89.41
2017-10-05T02:29:28.727Z,89.24
2017-10-05T02:31:57.343Z,89.42
2017-10-05T02:34:26.009Z,89.14
2017-10-05T02:36:54.647Z,89.44
2017-10-05T02:39:23.303Z,89.50
2017-10-05T02:41:51.923Z,89.49
2017-10-05T02:44:22.054Z,89.50
2017-10-05T02:46:50.732Z,89.64
2017-10-05T02:49:19.339Z,89.47
2017-10-05T02:51:47.995Z,89.70
2017-10-05T02:54:16.630Z,89.64
2017-10-05T02:56:45.303Z,89.53
2017-10-05T02:59:13.954Z,89.76
2017-10-05T03:01:42.654Z,89.88
2017-10-05T03:04:11.326Z,89.60
2017-10-05T03:06:39.983Z,89.79
2017-10-05T03:09:08.636Z,89.79
2017-10-05T03:11:37.302Z,89.79
2017-10-05T03:14:05.902Z,89.85
2017-10-05T03:16:34.550Z,89.55
2017-10-05T03:19:03.161Z,89.71
2017-10-05T03:21:31.810Z,89.81
2017-10-05T03:24:00.445Z,89.70
2017-10-05T03:26:29.091Z,89.37
2017-10-05T03:28:57.692Z,89.63
2017-10-05T03:31:26.357Z,89.60
2017-10-05T03:33:54.998Z,89.57
2017-10-05T03:36:23.673Z,89.51
2017-10-05T03:38:52.290Z,89.48
2017-10-05T03:41:20.954Z,89.67
2017-10-05T03:43:49.635Z,89.57
2017-10-05T03:46:18.335Z,89.57
2017-10-05T03:48:46.939Z,89.70
2017-10-05T03:51:15.550Z,89.48
2017-10-05T03:53:44.062Z,89.51
2017-10-05T03:56:12.682Z,89.44
2017-10-05T03:58:41.330Z,89.52
2017-10-05T04:01:09.935Z,89.55
2017-10-05T04:03:38.434Z,89.62
2017-10-05T04:06:06.938Z,89.52
2017-10-05T04:08:35.977Z,89.63
2017-10-05T04:11:04.467Z,89.78
2017-10-05T04:13:32.939Z,89.64
2017-10-05T04:16:01.437Z,89.71
2017-10-05T04:18:34.158Z,89.50
2017-10-05T04:21:02.816Z,89.70
2017-10-05T04:23:32.248Z,89.76
2017-10-05T04:26:00.970Z,89.67
2017-10-05T04:28:29.584Z,89.72
2017-10-05T04:30:58.249Z,89.62
2017-10-05T04:33:27.011Z,89.63
2017-10-05T04:35:59.042Z,89.85
2017-10-05T04:38:27.669Z,89.72
2017-10-05T04:40:56.326Z,89.75
2017-10-05T04:43:25.013Z,89.69
2017-10-05T04:45:53.618Z,89.76
2017-10-05T04:48:22.320Z,89.89
2017-10-05T04:50:50.948Z,89.67
2017-10-05T04:53:19.591Z,89.55
2017-10-05T04:55:48.321Z,89.74
2017-10-05T04:58:17.032Z,89.63
2017-10-05T05:00:45.385Z,89.63
2017-10-05T05:03:14.027Z,89.65
2017-10-05T05:05:42.688Z,89.51
2017-10-05T05:08:11.329Z,89.51
2017-10-05T05:10:39.999Z,89.55
2017-10-05T05:13:08.659Z,89.57
2017-10-05T05:15:37.302Z,89.57
2017-10-05T05:18:05.996Z,89.55
2017-10-05T05:20:34.666Z,89.60
2017-10-05T05:23:03.277Z,89.67
2017-10-05T05:25:31.929Z,89.50
2017-10-05T05:28:00.533Z,89.44
2017-10-05T05:30:29.190Z,89.67
2017-10-05T05:32:57.782Z,89.73
2017-10-05T05:35:26.417Z,89.76
2017-10-05T05:37:55.081Z,89.87
2017-10-05T05:40:23.736Z,89.51
2017-10-05T05:42:52.453Z,89.72
2017-10-05T05:45:21.067Z,89.64
2017-10-05T05:47:49.723Z,89.57
2017-10-05T05:50:18.402Z,89.61
2017-10-05T05:52:47.031Z,89.58
2017-10-05T05:55:15.235Z,89.43
2017-10-05T05:57:43.878Z,89.58
2017-10-05T06:00:12.247Z,89.46
2017-10-05T06:02:40.577Z,89.41
2017-10-05T06:05:09.063Z,89.34
2017-10-05T06:07:37.706Z,89.32
2017-10-05T06:10:06.181Z,89.44
2017-10-05T06:12:34.841Z,89.41
2017-10-05T06:15:03.449Z,89.36
2017-10-05T06:17:32.073Z,89.58
2017-10-05T06:20:00.747Z,89.40
2017-10-05T06:22:29.359Z,89.48
2017-10-05T06:24:58.087Z,89.35
2017-10-05T06:27:26.757Z,89.41
2017-10-05T06:29:55.366Z,89.54
2017-10-05T06:32:24.011Z,89.44
2017-10-05T06:34:52.625Z,89.33
2017-10-05T06:37:21.281Z,89.18
2017-10-05T06:39:49.906Z,89.27
2017-10-05T06:42:18.576Z,89.37
2017-10-05T06:44:47.234Z,89.55
2017-10-05T06:47:15.854Z,89.48
2017-10-05T06:49:44.454Z,89.55
2017-10-05T06:52:13.059Z,89.45
2017-10-05T06:54:41.723Z,89.47
2017-10-05T06:57:10.353Z,89.16
2017-10-05T06:59:39.003Z,89.33
2017-10-05T07:02:08.297Z,89.23
2017-10-05T07:04:36.968Z,89.58
2017-10-05T07:07:05.576Z,89.58
2017-10-05T07:09:34.258Z,89.45
2017-10-05T07:12:02.858Z,89.55
2017-10-05T07:14:31.464Z,89.60
2017-10-05T07:17:00.113Z,89.65
2017-10-05T07:19:28.739Z,89.63
2017-10-05T07:21:57.433Z,89.59
2017-10-05T07:24:26.071Z,89.39
2017-10-05T07:26:54.741Z,89.59
2017-10-05T07:29:23.347Z,89.55
2017-10-05T07:31:52.009Z,89.68
2017-10-05T07:34:20.606Z,89.55
2017-10-05T07:36:49.262Z,89.47
2017-10-05T07:39:17.893Z,89.35
2017-10-05T07:41:46.544Z,89.52
2017-10-05T07:44:15.258Z,89.41
2017-10-05T07:46:43.916Z,89.52
2017-10-05T07:49:12.523Z,89.51
2017-10-05T07:51:41.194Z,89.60
2017-10-05T07:54:09.858Z,89.82
2017-10-05T07:56:38.327Z,89.82
2017-10-05T07:59:06.982Z,89.72
2017-10-05T08:01:35.649Z,89.57
2017-10-05T08:04:04.270Z,89.84
2017-10-05T08:06:32.942Z,89.52
2017-10-05T08:09:01.555Z,89.65
2017-10-05T08:11:30.202Z,89.81
2017-10-05T08:13:58.826Z,89.91
2017-10-05T08:16:27.474Z,89.80
2017-10-05T08:18:56.075Z,89.88
2017-10-05T08:21:24.736Z,89.81
2017-10-05T08:23:53.335Z,90.00
2017-10-05T08:26:21.986Z,89.90
2017-10-05T08:28:50.601Z,89.82
2017-10-05T08:31:19.248Z,90.10
2017-10-05T08:33:47.869Z,90.11
2017-10-05T08:36:16.526Z,90.33
2017-10-05T08:38:45.131Z,90.36
2017-10-05T08:41:13.780Z,90.02
2017-10-05T08:43:42.458Z,90.40
2017-10-05T08:46:11.078Z,90.14
2017-10-05T08:48:39.707Z,90.52
2017-10-05T08:51:08.403Z,90.47
2017-10-05T08:53:37.037Z,90.64
2017-10-05T08:56:05.709Z,90.64
2017-10-05T08:58:34.842Z,90.56
2017-10-05T09:01:03.379Z,90.64
2017-10-05T09:03:32.033Z,90.49
2017-10-05T09:06:00.701Z,90.48
2017-10-05T09:08:31.167Z,90.65
2017-10-05T09:10:59.689Z,90.52
2017-10-05T09:13:28.186Z,91.00
2017-10-05T09:15:56.810Z,90.68
2017-10-05T09:18:25.314Z,91.04
2017-10-05T09:20:53.795Z,90.85
2017-10-05T09:23:22.451Z,90.90
2017-10-05T09:25:51.073Z,90.84
2017-10-05T09:28:19.730Z,91.17
2017-10-05T09:30:48.401Z,91.21
2017-10-05T09:33:17.014Z,91.53
2017-10-05T09:35:45.682Z,91.21
2017-10-05T09:38:14.341Z,91.38
2017-10-05T09:40:42.949Z,91.49
2017-10-05T09:43:11.609Z,91.38
2017-10-05T09:45:40.230Z,91.47
2017-10-05T09:48:08.908Z,91.53
2017-10-05T09:50:37.526Z,91.66
2017-10-05T09:53:06.190Z,91.58
2017-10-05T09:55:34.814Z,91.75
2017-10-05T09:58:03.476Z,91.79
2017-10-05T10:00:32.086Z,91.66
2017-10-05T10:03:00.689Z,91.94
2017-10-05T10:05:29.337Z,91.90
2017-10-05T10:07:57.939Z,91.79
2017-10-05T10:10:26.603Z,91.83
2017-10-05T10:12:55.210Z,91.97
2017-10-05T10:15:23.867Z,92.03
2017-10-05T10:17:52.540Z,91.76
2017-10-05T10:20:21.232Z,91.75
2017-10-05T10:22:49.842Z,92.06
2017-10-05T10:25:18.495Z,92.01
2017-10-05T10:27:47.115Z,92.12
2017-10-05T10:30:15.725Z,92.30
2017-10-05T10:32:44.382Z,92.18
2017-10-05T10:35:12.989Z,92.00
2017-10-05T10:37:41.638Z,91.95
2017-10-05T10:40:10.264Z,92.04
2017-10-05T10:42:38.925Z,92.16
2017-10-05T10:45:07.527Z,92.13
2017-10-05T10:47:36.131Z,92.22
2017-10-05T10:50:04.765Z,92.11
2017-10-05T10:52:33.447Z,92.20
2017-10-05T10:55:02.094Z,92.22
2017-10-05T10:57:30.714Z,91.99
2017-10-05T10:59:59.410Z,92.07
2017-10-05T11:02:28.019Z,92.04
2017-10-05T11:04:56.695Z,92.00
2017-10-05T11:07:25.346Z,91.76
2017-10-05T11:09:53.969Z,91.96
2017-10-05T11:12:22.619Z,92.08
2017-10-05T11:14:51.422Z,92.31
2017-10-05T11:17:20.146Z,92.20
2017-10-05T11:19:48.810Z,92.01
2017-10-05T11:22:17.469Z,91.91
2017-10-05T11:24:46.069Z,91.98
2017-10-05T11:27:14.730Z,91.96
2017-10-05T11:29:43.363Z,92.07
2017-10-05T11:32:12.010Z,91.84
2017-10-05T11:34:40.669Z,91.87
2017-10-05T11:37:09.290Z,89.54
2017-10-05T11:39:37.946Z,87.54
2017-10-05T11:42:06.562Z,86.60
2017-10-05T11:44:35.223Z,86.36
2017-10-05T11:47:03.833Z,86.61
2017-10-05T11:49:32.482Z,85.70
2017-10-05T11:52:01.094Z,86.25
2017-10-05T11:54:29.754Z,85.72
2017-10-05T11:56:58.377Z,85.12
2017-10-05T11:59:27.073Z,84.71
2017-10-05T12:01:55.705Z,84.67
2017-10-05T12:04:24.381Z,84.96
2017-10-05T12:06:52.993Z,85.41
2017-10-05T12:09:21.682Z,85.46
2017-10-05T12:11:50.286Z,85.48
2017-10-05T12:14:18.951Z,85.30
2017-10-05T12:16:47.574Z,85.11
2017-10-05T12:19:16.166Z,85.30
2017-10-05T12:21:44.839Z,85.34
2017-10-05T12:24:13.462Z,84.89
2017-10-05T12:26:42.160Z,85.21
2017-10-05T12:29:10.844Z,84.69
2017-10-05T12:31:39.494Z,84.44
2017-10-05T12:34:08.161Z,84.56
2017-10-05T12:36:36.805Z,84.28
2017-10-05T12:39:05.139Z,83.58
2017-10-05T12:41:34.113Z,84.30
2017-10-05T12:44:02.726Z,84.39
2017-10-05T12:46:31.337Z,84.20
2017-10-05T12:49:00.442Z,84.76
2017-10-05T12:51:29.121Z,84.16
2017-10-05T12:53:57.779Z,84.20
2017-10-05T12:56:26.399Z,84.40
2017-10-05T12:58:54.886Z,84.57
2017-10-05T13:01:23.639Z,84.86
2017-10-05T13:03:52.250Z,84.81
2017-10-05T13:06:21.062Z,85.08
2017-10-05T13:08:49.698Z,85.06
2017-10-05T13:11:18.338Z,85.43
2017-10-05T13:13:46.995Z,85.79
2017-10-05T13:16:15.593Z,85.69
2017-10-05T13:18:44.241Z,85.51
2017-10-05T13:21:12.899Z,85.51
2017-10-05T13:23:41.550Z,85.81
2017-10-05T13:26:10.188Z,85.74
2017-10-05T13:28:38.841Z,85.71
2017-10-05T13:31:07.467Z,85.71
2017-10-05T13:33:36.123Z,85.78
2017-10-05T13:36:04.786Z,85.79
2017-10-05T13:38:34.721Z,85.83
2017-10-05T13:41:03.377Z,85.19
2017-10-05T13:43:32.110Z,86.02
2017-10-05T13:46:00.908Z,85.12
2017-10-05T13:48:33.182Z,85.15
2017-10-05T13:51:01.855Z,84.92
2017-10-05T13:53:30.464Z,84.96
2017-10-05T13:55:59.158Z,85.59
2017-10-05T13:58:27.841Z,86.00
2017-10-05T14:00:56.502Z,86.07
2017-10-05T14:03:25.111Z,86.53
2017-10-05T14:05:53.774Z,86.84
2017-10-05T14:08:22.407Z,86.67
2017-10-05T14:10:51.050Z,86.95
2017-10-05T14:13:19.678Z,86.08
2017-10-05T14:15:48.338Z,86.48
2017-10-05T14:18:16.962Z,86.50
2017-10-05T14:20:45.574Z,86.00
2017-10-05T14:23:14.226Z,86.33
2017-10-05T14:25:42.893Z,86.63
2017-10-05T14:28:11.490Z,86.34
2017-10-05T14:30:40.147Z,85.83
2017-10-05T14:33:08.804Z,85.47
2017-10-05T14:35:37.410Z,85.04
2017-10-05T14:38:06.070Z,86.36
2017-10-05T14:40:34.688Z,86.02
2017-10-05T14:43:03.338Z,86.65
2017-10-05T14:45:31.992Z,86.87
2017-10-05T14:48:00.625Z,86.53
2017-10-05T14:50:29.251Z,86.53
2017-10-05T14:52:57.930Z,86.24
2017-10-05T14:55:26.525Z,86.64
2017-10-05T14:57:55.223Z,86.68
2017-10-05T15:00:23.863Z,86.51
2017-10-05T15:02:52.534Z,86.21
2017-10-05T15:05:21.210Z,85.96
2017-10-05T15:07:49.715Z,86.23
2017-10-05T15:10:18.332Z,85.11
2017-10-05T15:12:46.974Z,85.75
2017-10-05T15:15:15.627Z,85.74
2017-10-05T15:17:44.267Z,85.91
2017-10-05T15:20:12.923Z,86.09
2017-10-05T15:22:41.533Z,85.72
2017-10-05T15:25:10.143Z,85.88
2017-10-05T15:27:38.835Z,86.25
2017-10-05T15:30:07.522Z,86.23
2017-10-05T15:32:36.204Z,85.53
2017-10-05T15:35:04.840Z,86.00
2017-10-05T15:37:33.502Z,86.43
2017-10-05T15:40:02.132Z,86.79
2017-10-05T15:42:30.755Z,86.44
2017-10-05T15:44:59.397Z,86.51
2017-10-05T15:47:28.015Z,86.69
2017-10-05T15:49:56.716Z,86.76
2017-10-05T15:52:25.321Z,86.82
2017-10-05T15:54:55.117Z,86.80
2017-10-05T15:57:23.794Z,86.74
2017-10-05T15:59:52.411Z,86.54
2017-10-05T16:02:21.161Z,86.58
2017-10-05T16:04:49.763Z,86.37
2017-10-05T16:07:18.387Z,86.34
2017-10-05T16:09:47.043Z,86.88
2017-10-05T16:12:15.641Z,86.19
2017-10-05T16:14:44.290Z,85.75
2017-10-05T16:17:12.905Z,85.85
2017-10-05T16:19:41.519Z,86.00
2017-10-05T16:22:10.187Z,86.07
2017-10-05T16:24:38.793Z,85.82
2017-10-05T16:27:07.441Z,85.66
2017-10-05T16:29:36.063Z,85.49
2017-10-05T16:32:04.739Z,85.70
2017-10-05T16:34:33.262Z,85.40
2017-10-05T16:37:01.726Z,85.65
2017-10-05T16:39:30.326Z,85.58
2017-10-05T16:41:58.973Z,85.49
2017-10-05T16:44:27.585Z,85.33
2017-10-05T16:46:56.239Z,85.61
2017-10-05T16:49:24.895Z,85.63
2017-10-05T16:51:53.495Z,85.30
2017-10-05T16:54:22.181Z,85.43
2017-10-05T16:57:06.399Z,85.69
2017-10-05T16:59:42.995Z,85.64
2017-10-05T17:02:11.665Z,85.66
2017-10-05T17:04:40.338Z,85.85
2017-10-05T17:07:25.088Z,86.01
2017-10-05T17:09:59.764Z,85.90
2017-10-05T17:12:37.631Z,85.77
2017-10-05T17:15:09.681Z,85.85
2017-10-05T17:17:55.156Z,85.87
2017-10-05T17:20:26.255Z,86.00
2017-10-05T17:22:59.278Z,85.98
2017-10-05T17:25:36.690Z,85.86
2017-10-05T17:31:10.579Z,86.02
2017-10-05T17:33:50.609Z,85.84
2017-10-05T17:36:19.783Z,85.79
2017-10-05T17:38:48.534Z,85.75
2017-10-05T17:41:17.271Z,85.82
2017-10-05T17:43:46.732Z,85.57
2017-10-05T17:46:27.359Z,85.74
2017-10-05T17:48:56.681Z,85.87
2017-10-05T17:51:39.557Z,85.45
2017-10-05T17:54:15.620Z,85.64
2017-10-05T17:57:00.654Z,85.84
2017-10-05T17:59:37.541Z,85.76
2017-10-05T18:02:12.759Z,85.76
2017-10-05T18:04:44.476Z,85.87
2017-10-05T18:07:24.273Z,85.90
2017-10-05T18:10:07.037Z,85.95
2017-10-05T18:12:48.526Z,85.92
2017-10-05T18:15:20.547Z,85.73
2017-10-05T18:17:59.687Z,85.85
2017-10-05T18:20:40.633Z,85.85
2017-10-05T18:23:21.966Z,85.67
2017-10-05T18:25:59.934Z,85.78
2017-10-05T18:31:28.064Z,85.69
2017-10-05T18:34:02.828Z,85.87
2017-10-05T18:36:48.485Z,85.93
2017-10-05T18:39:27.012Z,85.95
2017-10-05T18:42:13.234Z,85.72
2017-10-05T18:44:52.510Z,85.81
2017-10-05T18:47:26.100Z,85.91
2017-10-05T18:50:03.389Z,86.01
2017-10-05T18:52:54.767Z,86.16
2017-10-05T18:58:13.692Z,86.16
2017-10-05T19:00:42.378Z,86.31
2017-10-05T19:03:11.073Z,86.31
2017-10-05T19:05:39.687Z,86.33
2017-10-05T19:08:08.361Z,86.32
2017-10-05T19:10:37.028Z,86.34
2017-10-05T19:13:10.368Z,86.33
2017-10-05T19:15:38.994Z,86.33
2017-10-05T19:18:08.607Z,86.33
2017-10-05T19:20:39.707Z,86.33
2017-10-05T19:23:27.922Z,86.30
2017-10-05T19:25:56.562Z,86.44
2017-10-05T19:28:26.945Z,86.48
2017-10-05T19:30:55.600Z,86.45
2017-10-05T19:33:26.495Z,86.47
2017-10-05T19:36:05.549Z,86.54
2017-10-05T19:38:55.987Z,86.48
2017-10-05T19:41:30.070Z,86.42
2017-10-05T19:44:02.331Z,86.43
2017-10-05T19:46:43.304Z,86.59
2017-10-05T19:49:21.911Z,86.59
2017-10-05T19:51:59.623Z,86.52
2017-10-05T19:54:37.537Z,86.59
2017-10-05T19:57:13.315Z,86.54
2017-10-05T19:59:50.376Z,86.50
2017-10-05T20:02:19.032Z,86.50
2017-10-05T20:04:47.633Z,86.51
2017-10-05T20:07:16.292Z,86.51
2017-10-05T20:09:48.895Z,86.54
2017-10-05T20:12:20.662Z,86.70
2017-10-05T20:14:52.801Z,86.76
2017-10-05T20:17:29.680Z,86.80
2017-10-05T20:23:15.116Z,86.74
2017-10-05T20:26:03.339Z,86.85
2017-10-05T20:28:40.365Z,86.89
2017-10-05T20:34:19.788Z,86.75
2017-10-05T20:36:49.202Z,86.75
2017-10-05T20:39:18.319Z,87.01
2017-10-05T20:41:48.171Z,86.88
2017-10-05T20:44:16.789Z,87.07
2017-10-05T20:46:46.374Z,87.23
2017-10-05T20:49:15.023Z,87.19
2017-10-05T20:51:58.238Z,87.12
2017-10-05T20:54:43.499Z,87.16
2017-10-05T20:57:30.055Z,86.99
2017-10-05T21:00:16.119Z,87.08
2017-10-05T21:03:02.206Z,87.21
2017-10-05T21:05:44.864Z,87.07
2017-10-05T21:08:26.426Z,87.28
2017-10-05T21:11:09.179Z,87.28
2017-10-05T21:13:50.800Z,87.78
2017-10-05T21:16:32.847Z,87.88
2017-10-05T21:19:14.626Z,87.56
2017-10-05T21:21:56.820Z,87.82
2017-10-05T21:24:38.208Z,88.04
2017-10-05T21:27:21.184Z,88.07
2017-10-05T21:30:02.126Z,88.27
2017-10-05T21:32:43.328Z,88.30
2017-10-05T21:35:23.252Z,88.03
2017-10-05T21:38:04.455Z,87.96
2017-10-05T21:40:49.454Z,88.43
2017-10-05T21:43:19.230Z,88.46
2017-10-05T21:45:47.860Z,88.61
2017-10-05T21:48:16.534Z,88.71
2017-10-05T21:50:45.170Z,88.75
2017-10-05T21:53:13.852Z,88.85
2017-10-05T21:55:42.494Z,89.04
2017-10-05T21:58:11.160Z,89.02
2017-10-05T22:00:39.267Z,89.09
2017-10-05T22:03:07.924Z,89.04
2017-10-05T22:05:36.579Z,89.03
2017-10-05T22:08:05.233Z,88.98
2017-10-05T22:10:33.855Z,89.14
2017-10-05T22:13:02.523Z,89.08
2017-10-05T22:15:31.198Z,89.05
2017-10-05T22:17:59.819Z,89.05
2017-10-05T22:20:28.482Z,89.00
2017-10-05T22:22:57.107Z,88.98
2017-10-05T22:25:25.841Z,88.87
2017-10-05T22:27:54.512Z,88.72
2017-10-05T22:30:23.119Z,88.74
2017-10-05T22:32:51.781Z,88.90
2017-10-05T22:35:20.395Z,88.80
2017-10-05T22:37:48.998Z,88.89
2017-10-05T22:40:17.746Z,88.84
2017-10-05T22:42:46.374Z,89.02
2017-10-05T22:45:15.054Z,88.87
2017-10-05T22:47:43.681Z,89.22
2017-10-05T22:50:12.351Z,89.05
2017-10-05T22:52:40.977Z,89.28
2017-10-05T22:55:09.599Z,89.14
2017-10-05T22:57:38.251Z,88.99
2017-10-05T23:00:06.542Z,88.90
2017-10-05T23:02:38.895Z,89.08
2017-10-05T23:05:12.521Z,89.22
2017-10-05T23:07:46.499Z,89.02
2017-10-05T23:10:28.612Z,89.00
2017-10-05T23:13:01.543Z,89.03
2017-10-05T23:15:36.312Z,89.20
2017-10-05T23:18:06.283Z,88.91
2017-10-05T23:20:37.193Z,88.90
2017-10-05T23:23:08.520Z,89.07
2017-10-05T23:25:39.789Z,88.90
2017-10-05T23:28:09.783Z,88.94
2017-10-05T23:30:40.293Z,88.95
2017-10-05T23:33:08.917Z,88.73
2017-10-05T23:35:37.523Z,88.68
2017-10-05T23:38:06.194Z,88.80
2017-10-05T23:40:34.815Z,88.79
2017-10-05T23:43:03.503Z,88.91
2017-10-05T23:45:33.420Z,88.76
2017-10-05T23:48:02.322Z,88.85
2017-10-05T23:50:30.993Z,88.92
2017-10-05T23:52:59.608Z,89.00
2017-10-05T23:55:28.263Z,88.86
2017-10-05T23:57:56.872Z,88.89
